Time;durP1;ratioP1;P1;durP2;ratioP2;P2;SDS_P1;SDS_P2;PMS_P1;PMS_P2;Temp;Humidity;BMP_temperature;BMP_pressure;BME280_temperature;BME280_humidity;BME280_pressure;Samples;Min_cycle;Max_cycle;Signal;HPM_P1;HPM_P2
2022/10/28 00:01:29;;;;;;;6.17;5.10;;;14.60;99.90;;;;;;4922863;29;20191;-75
2022/10/28 00:03:57;;;;;;;5.90;5.10;;;14.60;99.90;;;;;;4938523;29;20245;-76
2022/10/28 00:06:25;;;;;;;8.47;5.13;;;14.60;99.90;;;;;;4938922;29;20534;-76
2022/10/28 00:08:51;;;;;;;6.47;5.20;;;14.60;99.90;;;;;;4934545;29;20261;-73
2022/10/28 00:11:21;;;;;;;6.10;4.60;;;14.60;99.90;;;;;;4942161;29;20600;-76
2022/10/28 00:13:47;;;;;;;6.33;4.37;;;14.60;99.90;;;;;;4941755;29;20222;-77
2022/10/28 00:16:19;;;;;;;9.10;4.93;;;14.60;99.90;;;;;;4938183;29;20307;-78
2022/10/28 00:18:45;;;;;;;9.43;5.40;;;14.60;99.90;;;;;;4941992;29;20225;-77
2022/10/28 00:21:14;;;;;;;5.57;4.20;;;14.60;99.90;;;;;;4941138;29;20201;-77
2022/10/28 00:23:40;;;;;;;6.13;4.20;;;14.60;99.90;;;;;;4939227;29;20210;-79
2022/10/28 00:26:20;;;;;;;5.30;4.73;;;14.60;99.90;;;;;;4938136;29;20648;-78
2022/10/28 00:28:49;;;;;;;6.13;5.53;;;14.60;99.90;;;;;;4938175;29;20206;-78
2022/10/28 00:31:17;;;;;;;7.63;4.53;;;14.60;99.90;;;;;;4941353;29;20202;-79
2022/10/28 00:33:43;;;;;;;6.73;4.43;;;14.60;99.90;;;;;;4934907;29;20288;-77
2022/10/28 00:36:24;;;;;;;7.00;4.77;;;14.60;99.90;;;;;;4940527;29;20198;-77
2022/10/28 00:38:51;;;;;;;5.57;4.77;;;14.60;99.90;;;;;;4939918;29;20201;-77
2022/10/28 00:41:26;;;;;;;5.57;5.07;;;14.60;99.90;;;;;;4938107;29;20214;-76
2022/10/28 00:43:54;;;;;;;6.07;4.53;;;14.60;99.90;;;;;;4942092;29;20252;-79
2022/10/28 00:46:40;;;;;;;5.80;5.03;;;14.60;99.90;;;;;;4941385;29;20226;-79
2022/10/28 00:49:14;;;;;;;6.13;4.73;;;14.60;99.90;;;;;;4941719;29;20744;-80
2022/10/28 00:51:41;;;;;;;8.33;4.97;;;14.60;99.90;;;;;;4939030;29;20204;-78
2022/10/28 00:54:07;;;;;;;8.33;5.50;;;14.60;99.90;;;;;;4933894;29;20229;-78
2022/10/28 00:56:37;;;;;;;5.90;5.07;;;14.60;99.90;;;;;;4931185;29;20195;-79
2022/10/28 00:59:09;;;;;;;7.37;4.77;;;14.60;99.90;;;;;;4931632;29;20206;-80
2022/10/28 01:01:35;;;;;;;5.00;4.50;;;14.60;99.90;;;;;;4930299;29;20190;-79
2022/10/28 01:04:00;;;;;;;7.40;5.20;;;14.60;99.90;;;;;;4931817;29;20221;-79
2022/10/28 01:06:27;;;;;;;5.57;4.97;;;14.60;99.90;;;;;;4931803;29;20280;-78
2022/10/28 01:08:53;;;;;;;5.27;4.67;;;14.70;99.90;;;;;;4932405;29;20237;-75
2022/10/28 01:11:37;;;;;;;5.30;4.60;;;14.60;99.90;;;;;;4931618;29;20206;-75
2022/10/28 01:14:17;;;;;;;6.67;5.43;;;14.60;99.90;;;;;;4928130;29;20316;-77
2022/10/28 01:17:10;;;;;;;4.33;3.90;;;14.60;99.90;;;;;;4929883;29;20517;-79
2022/10/28 01:19:57;;;;;;;5.70;4.50;;;14.60;99.90;;;;;;4930002;29;20202;-77
2022/10/28 01:22:28;;;;;;;8.17;5.17;;;14.60;99.90;;;;;;4931391;29;20238;-77
2022/10/28 01:25:17;;;;;;;7.97;4.80;;;14.60;99.90;;;;;;4925375;29;20203;-74
2022/10/28 01:28:02;;;;;;;7.23;4.97;;;14.60;99.90;;;;;;4928935;29;20214;-78
2022/10/28 01:30:43;;;;;;;5.17;4.67;;;14.60;99.90;;;;;;4930485;29;21061;-75
2022/10/28 01:33:37;;;;;;;6.00;4.60;;;14.50;99.90;;;;;;4926895;29;20207;-80
2022/10/28 01:36:13;;;;;;;5.47;4.60;;;14.50;99.90;;;;;;4925705;29;20209;-78
2022/10/28 01:39:12;;;;;;;6.30;5.00;;;14.50;99.90;;;;;;4929064;29;20206;-77
2022/10/28 01:42:12;;;;;;;4.90;4.50;;;14.50;99.90;;;;;;4926306;29;20199;-77
2022/10/28 01:44:52;;;;;;;6.67;5.93;;;14.40;99.90;;;;;;4869885;29;20319;-75
2022/10/28 01:47:31;;;;;;;6.03;5.27;;;14.40;99.90;;;;;;4922065;29;20225;-76
2022/10/28 01:50:02;;;;;;;7.43;5.90;;;14.40;99.90;;;;;;4924633;29;20214;-78
2022/10/28 01:52:30;;;;;;;6.20;5.70;;;14.40;99.90;;;;;;4930579;29;20191;-75
2022/10/28 01:55:06;;;;;;;6.47;5.93;;;14.30;99.90;;;;;;4928829;29;20219;-79
2022/10/28 01:57:34;;;;;;;6.93;5.90;;;14.30;99.90;;;;;;4925714;29;20198;-79
2022/10/28 02:00:01;;;;;;;6.30;5.70;;;14.30;99.90;;;;;;4935117;29;20194;-79
2022/10/28 02:02:33;;;;;;;6.70;5.60;;;14.30;99.90;;;;;;4939496;29;20284;-78
2022/10/28 02:05:38;;;;;;;7.57;6.23;;;14.30;99.90;;;;;;4939574;29;20274;-79
2022/10/28 02:08:17;;;;;;;8.50;6.27;;;14.30;99.90;;;;;;4844587;29;20193;-75
2022/10/28 02:10:45;;;;;;;7.80;6.20;;;14.20;99.90;;;;;;4927477;29;20210;-74
2022/10/28 02:13:13;;;;;;;8.00;5.73;;;14.20;99.90;;;;;;4939532;29;20437;-74
2022/10/28 02:16:17;;;;;;;9.43;5.90;;;14.20;99.90;;;;;;4939108;29;20210;-72
2022/10/28 02:18:49;;;;;;;9.43;6.33;;;14.10;99.90;;;;;;4908293;29;20329;-75
2022/10/28 02:21:32;;;;;;;9.97;7.13;;;14.10;99.90;;;;;;4939417;29;20202;-75
2022/10/28 02:24:16;;;;;;;9.60;6.17;;;14.10;99.90;;;;;;4939584;29;20304;-75
2022/10/28 02:26:59;;;;;;;10.27;5.07;;;14.00;99.90;;;;;;4938710;28;20218;-75
2022/10/28 02:29:39;;;;;;;8.83;6.13;;;14.00;99.90;;;;;;4939364;29;20210;-74
2022/10/28 02:32:09;;;;;;;11.50;6.67;;;14.00;99.90;;;;;;4935840;29;20209;-75
2022/10/28 02:34:40;;;;;;;7.90;6.43;;;14.00;99.90;;;;;;4928420;29;20581;-73
2022/10/28 02:37:12;;;;;;;9.63;6.57;;;14.00;99.90;;;;;;4933306;29;20190;-76
2022/10/28 02:39:41;;;;;;;10.93;6.17;;;14.00;99.90;;;;;;4936558;29;20209;-76
2022/10/28 02:42:19;;;;;;;7.00;6.33;;;14.00;99.90;;;;;;4938768;29;20245;-78
2022/10/28 02:44:49;;;;;;;8.63;5.97;;;13.90;99.90;;;;;;4938738;29;20226;-78
2022/10/28 02:47:19;;;;;;;11.43;6.27;;;14.00;99.90;;;;;;4938927;29;20230;-77
2022/10/28 02:49:50;;;;;;;9.53;5.97;;;13.90;99.90;;;;;;4938928;29;20289;-76
2022/10/28 02:52:17;;;;;;;10.17;6.63;;;13.90;99.90;;;;;;4938568;29;20201;-77
2022/10/28 02:55:15;;;;;;;7.13;6.33;;;13.90;99.90;;;;;;4936571;28;20636;-78
2022/10/28 02:57:43;;;;;;;9.23;5.33;;;13.90;99.90;;;;;;4892088;29;20685;-78
2022/10/28 03:00:14;;;;;;;8.77;6.13;;;13.80;99.90;;;;;;4938925;29;20202;-78
2022/10/28 03:02:39;;;;;;;7.13;5.90;;;13.80;99.90;;;;;;4938430;29;20202;-78
2022/10/28 03:05:05;;;;;;;7.43;5.33;;;13.80;99.90;;;;;;4934126;29;20945;-79
2022/10/28 03:07:31;;;;;;;7.60;6.07;;;13.80;99.90;;;;;;4918971;29;20205;-79
2022/10/28 03:09:56;;;;;;;8.03;5.70;;;13.80;99.90;;;;;;4937678;29;20206;-78
2022/10/28 03:12:21;;;;;;;6.43;5.47;;;13.80;99.90;;;;;;4936381;29;20622;-78
2022/10/28 03:14:47;;;;;;;10.80;6.40;;;13.80;99.90;;;;;;4928349;29;20206;-76
2022/10/28 03:17:12;;;;;;;8.07;6.17;;;13.80;99.90;;;;;;4931985;29;20205;-78
2022/10/28 03:19:38;;;;;;;6.17;5.50;;;13.70;99.90;;;;;;4925337;29;20689;-79
2022/10/28 03:22:03;;;;;;;7.57;6.27;;;13.70;99.90;;;;;;4926759;29;20199;-79
2022/10/28 03:24:29;;;;;;;7.03;6.13;;;13.70;99.90;;;;;;4931624;29;20366;-78
2022/10/28 03:26:54;;;;;;;10.30;6.27;;;13.70;99.90;;;;;;4926716;29;20293;-78
2022/10/28 03:29:20;;;;;;;11.63;6.57;;;13.70;99.90;;;;;;4928902;29;20201;-78
2022/10/28 03:31:46;;;;;;;7.03;5.27;;;13.60;99.90;;;;;;4928989;29;20930;-78
2022/10/28 03:34:11;;;;;;;7.10;5.80;;;13.60;99.90;;;;;;4931700;29;20217;-78
2022/10/28 03:36:37;;;;;;;7.70;6.00;;;13.50;99.90;;;;;;4937362;28;20198;-78
2022/10/28 03:39:03;;;;;;;11.97;5.77;;;13.50;99.90;;;;;;4937434;29;20237;-78
2022/10/28 03:41:29;;;;;;;7.80;6.63;;;13.40;99.90;;;;;;4937069;29;20257;-78
2022/10/28 03:43:54;;;;;;;7.90;6.80;;;13.50;99.90;;;;;;4925810;29;20225;-78
2022/10/28 03:46:20;;;;;;;7.57;6.50;;;13.50;99.90;;;;;;4931821;29;20232;-78
2022/10/28 03:48:45;;;;;;;13.93;6.70;;;13.50;99.90;;;;;;4935739;29;20814;-77
2022/10/28 03:51:11;;;;;;;9.03;6.67;;;13.50;99.90;;;;;;4936933;29;20209;-77
2022/10/28 03:53:37;;;;;;;9.87;5.73;;;13.50;99.90;;;;;;4937278;28;20245;-78
2022/10/28 03:56:03;;;;;;;10.23;6.33;;;13.40;99.90;;;;;;4937832;29;20253;-78
2022/10/28 03:58:28;;;;;;;8.07;6.90;;;13.40;99.90;;;;;;4931385;29;20254;-76
2022/10/28 04:00:55;;;;;;;13.37;6.83;;;13.40;99.90;;;;;;4928671;29;20705;-78
2022/10/28 04:03:22;;;;;;;12.03;6.80;;;13.30;99.90;;;;;;4925950;29;20327;-77
2022/10/28 04:05:48;;;;;;;8.43;6.30;;;13.30;99.90;;;;;;4928409;29;20209;-77
2022/10/28 04:08:14;;;;;;;16.00;7.53;;;13.30;99.90;;;;;;4928162;29;20687;-78
2022/10/28 04:10:40;;;;;;;7.37;5.73;;;13.30;99.90;;;;;;4927224;29;20210;-78
2022/10/28 04:13:07;;;;;;;7.83;6.60;;;13.30;99.90;;;;;;4927347;29;20218;-78
2022/10/28 04:15:33;;;;;;;7.63;6.07;;;13.20;99.90;;;;;;4925592;29;20668;-78
2022/10/28 04:17:58;;;;;;;9.00;6.53;;;13.20;99.90;;;;;;4929942;29;20684;-78
2022/10/28 04:20:25;;;;;;;10.90;6.20;;;13.20;99.90;;;;;;4937396;29;20198;-77
2022/10/28 04:22:51;;;;;;;8.37;6.33;;;13.20;99.90;;;;;;4935862;29;20290;-77
2022/10/28 04:25:16;;;;;;;7.70;6.33;;;13.20;99.90;;;;;;4937991;29;20210;-78
2022/10/28 04:27:45;;;;;;;8.03;6.03;;;13.20;99.90;;;;;;4931119;29;20206;-77
2022/10/28 04:30:11;;;;;;;7.07;5.97;;;13.20;99.90;;;;;;4928698;29;20199;-77
2022/10/28 04:32:37;;;;;;;9.37;6.33;;;13.20;99.90;;;;;;4928402;29;20277;-77
2022/10/28 04:35:03;;;;;;;9.17;6.53;;;13.10;99.90;;;;;;4928183;29;20218;-78
2022/10/28 04:37:29;;;;;;;6.80;6.13;;;13.10;99.90;;;;;;4928205;29;20191;-79
2022/10/28 04:39:54;;;;;;;10.53;6.23;;;13.10;99.90;;;;;;4925877;29;20228;-78
2022/10/28 04:42:21;;;;;;;13.30;6.20;;;13.00;99.90;;;;;;4927938;29;20228;-76
2022/10/28 04:44:46;;;;;;;7.97;6.40;;;13.00;99.90;;;;;;4927434;29;20569;-77
2022/10/28 04:47:12;;;;;;;6.60;6.00;;;13.00;99.90;;;;;;4927298;29;20222;-79
2022/10/28 04:49:37;;;;;;;8.30;5.63;;;12.90;99.90;;;;;;4929427;28;20670;-78
2022/10/28 04:52:03;;;;;;;14.90;6.43;;;12.90;99.90;;;;;;4929892;29;20286;-79
2022/10/28 04:54:28;;;;;;;9.13;7.87;;;12.90;99.90;;;;;;4931359;28;20222;-78
2022/10/28 04:56:54;;;;;;;9.73;6.80;;;12.80;99.90;;;;;;4931788;29;20700;-78
2022/10/28 04:59:19;;;;;;;9.70;6.70;;;12.80;99.90;;;;;;4931507;29;20610;-79
2022/10/28 05:01:45;;;;;;;12.10;7.30;;;12.80;99.90;;;;;;4932499;29;20204;-77
2022/10/28 05:04:10;;;;;;;7.10;6.00;;;12.80;99.90;;;;;;4931406;29;20714;-79
2022/10/28 05:06:36;;;;;;;7.30;5.83;;;12.80;99.90;;;;;;4931410;29;20206;-78
2022/10/28 05:09:02;;;;;;;8.97;6.93;;;12.80;99.90;;;;;;4925647;29;20198;-77
2022/10/28 05:11:27;;;;;;;9.70;6.97;;;12.80;99.90;;;;;;4930679;29;20301;-77
2022/10/28 05:13:53;;;;;;;7.80;6.23;;;12.80;99.90;;;;;;4930794;29;20228;-76
2022/10/28 05:16:18;;;;;;;10.73;6.37;;;12.80;99.90;;;;;;4930474;29;20209;-74
2022/10/28 05:18:44;;;;;;;7.60;6.80;;;12.80;99.90;;;;;;4930527;29;20211;-75
2022/10/28 05:21:09;;;;;;;7.47;6.47;;;12.80;99.90;;;;;;4929167;29;20205;-79
2022/10/28 05:23:35;;;;;;;6.90;6.23;;;12.80;99.90;;;;;;4931832;29;20673;-78
2022/10/28 05:26:00;;;;;;;10.33;6.53;;;12.90;99.90;;;;;;4931468;29;20202;-78
2022/10/28 05:28:26;;;;;;;7.17;6.17;;;12.90;99.90;;;;;;4931267;29;20617;-79
2022/10/28 05:30:51;;;;;;;8.13;6.60;;;12.90;99.90;;;;;;4927584;29;20206;-79
2022/10/28 05:33:17;;;;;;;8.03;7.20;;;12.90;99.90;;;;;;4931189;29;20712;-78
2022/10/28 05:35:42;;;;;;;11.53;7.40;;;12.90;99.90;;;;;;4929258;29;20202;-79
2022/10/28 05:38:08;;;;;;;9.90;7.20;;;13.00;99.90;;;;;;4930288;29;20197;-71
2022/10/28 05:40:33;;;;;;;8.57;7.13;;;13.00;99.90;;;;;;4931337;29;20312;-70
2022/10/28 05:43:00;;;;;;;8.03;6.47;;;13.10;99.90;;;;;;4939810;29;20866;-70
2022/10/28 05:45:26;;;;;;;13.10;7.07;;;13.10;99.90;;;;;;4939546;29;20212;-69
2022/10/28 05:47:51;;;;;;;9.03;7.37;;;13.10;99.90;;;;;;4938413;29;20396;-69
2022/10/28 05:50:19;;;;;;;8.67;6.77;;;13.20;99.90;;;;;;4939398;29;20209;-68
2022/10/28 05:52:49;;;;;;;10.53;7.30;;;13.20;99.90;;;;;;4937358;28;20258;-68
2022/10/28 05:55:18;;;;;;;11.77;7.40;;;13.20;99.90;;;;;;4939760;29;20229;-68
2022/10/28 05:57:44;;;;;;;10.83;7.17;;;13.30;99.90;;;;;;4938658;29;20288;-69
2022/10/28 06:00:10;;;;;;;10.07;6.43;;;13.30;99.90;;;;;;4936729;28;20296;-69
2022/10/28 06:02:35;;;;;;;11.17;6.47;;;13.40;99.90;;;;;;4933207;29;20190;-68
2022/10/28 06:05:01;;;;;;;7.40;6.30;;;13.40;99.90;;;;;;4929226;29;20453;-69
2022/10/28 06:07:28;;;;;;;7.87;6.50;;;13.40;99.90;;;;;;4929481;29;20552;-68
2022/10/28 06:09:54;;;;;;;10.73;7.20;;;13.50;99.90;;;;;;4929383;29;20282;-69
2022/10/28 06:12:19;;;;;;;7.90;6.73;;;13.50;99.90;;;;;;4937187;29;20317;-68
2022/10/28 06:14:44;;;;;;;10.63;7.50;;;13.50;99.90;;;;;;4934806;29;20218;-67
2022/10/28 06:17:10;;;;;;;10.80;7.97;;;13.50;99.90;;;;;;4938710;29;20766;-69
2022/10/28 06:19:35;;;;;;;9.40;6.73;;;13.50;99.90;;;;;;4938909;29;20182;-69
2022/10/28 06:22:01;;;;;;;8.47;6.37;;;13.50;99.90;;;;;;4938751;29;20202;-68
2022/10/28 06:24:26;;;;;;;8.00;6.20;;;13.50;99.90;;;;;;4937345;29;20758;-68
2022/10/28 06:26:52;;;;;;;9.23;6.77;;;13.50;99.90;;;;;;4938320;29;20245;-68
2022/10/28 06:29:17;;;;;;;9.50;6.70;;;13.40;99.90;;;;;;4935537;29;20204;-68
2022/10/28 06:31:43;;;;;;;17.30;6.63;;;13.40;99.90;;;;;;4938762;29;20209;-68
2022/10/28 06:34:12;;;;;;;8.43;6.60;;;13.40;99.90;;;;;;4939135;29;20281;-67
2022/10/28 06:36:38;;;;;;;8.17;6.60;;;13.50;99.90;;;;;;4936860;29;20676;-68
2022/10/28 06:39:04;;;;;;;9.73;6.67;;;13.50;99.90;;;;;;4938939;29;20244;-68
2022/10/28 06:41:30;;;;;;;9.33;6.70;;;13.50;99.90;;;;;;4938617;29;20584;-69
2022/10/28 06:43:55;;;;;;;8.53;6.00;;;13.60;99.90;;;;;;4938910;29;20701;-69
2022/10/28 06:46:21;;;;;;;8.30;6.50;;;13.60;99.90;;;;;;4938223;29;20258;-70
2022/10/28 06:48:47;;;;;;;7.90;6.40;;;13.60;99.90;;;;;;4938416;29;20549;-69
2022/10/28 06:51:12;;;;;;;10.70;5.87;;;13.60;99.90;;;;;;4935566;29;20794;-69
2022/10/28 06:53:38;;;;;;;10.23;6.80;;;13.70;99.90;;;;;;4936568;28;21090;-69
2022/10/28 06:56:04;;;;;;;9.37;5.90;;;13.70;99.90;;;;;;4938472;29;20606;-68
2022/10/28 06:58:29;;;;;;;6.50;5.50;;;13.70;99.90;;;;;;4938178;29;20268;-70
2022/10/28 07:00:55;;;;;;;11.30;6.33;;;13.80;99.90;;;;;;4937391;29;20203;-70
2022/10/28 07:03:21;;;;;;;9.13;7.00;;;13.80;99.90;;;;;;4929655;29;20201;-70
2022/10/28 07:05:48;;;;;;;8.17;6.33;;;13.80;99.90;;;;;;4927777;29;20215;-71
2022/10/28 07:08:13;;;;;;;6.20;5.70;;;13.90;99.90;;;;;;4929469;29;20217;-71
2022/10/28 07:10:40;;;;;;;9.30;6.07;;;13.90;99.90;;;;;;4928389;29;20558;-70
2022/10/28 07:13:05;;;;;;;10.90;6.87;;;14.00;99.90;;;;;;4928051;28;20210;-69
2022/10/28 07:15:31;;;;;;;8.07;6.07;;;13.90;99.90;;;;;;4927836;29;20329;-69
2022/10/28 07:17:58;;;;;;;10.67;6.83;;;14.10;99.90;;;;;;4921379;29;20265;-71
2022/10/28 07:20:25;;;;;;;8.67;5.93;;;14.10;99.90;;;;;;4928830;29;20630;-68
2022/10/28 07:22:59;;;;;;;6.30;5.70;;;14.10;99.90;;;;;;4929046;29;20949;-69
2022/10/28 07:25:25;;;;;;;10.13;6.53;;;14.20;99.90;;;;;;4928092;29;20435;-67
2022/10/28 07:27:51;;;;;;;10.17;6.57;;;14.30;99.90;;;;;;4927226;29;20214;-67
2022/10/28 07:30:16;;;;;;;6.77;6.00;;;14.40;99.90;;;;;;4927040;29;20264;-68
2022/10/28 07:32:42;;;;;;;13.43;6.30;;;14.50;99.90;;;;;;4927318;29;20772;-67
2022/10/28 07:35:08;;;;;;;10.17;6.27;;;14.60;99.90;;;;;;4931273;29;20748;-68
2022/10/28 07:37:33;;;;;;;8.70;5.63;;;14.60;99.90;;;;;;4925608;29;20311;-68
2022/10/28 07:39:58;;;;;;;9.33;5.57;;;14.70;99.90;;;;;;4926297;29;20256;-69
2022/10/28 07:42:24;;;;;;;5.83;5.23;;;14.80;99.90;;;;;;4930028;29;20280;-68
2022/10/28 07:44:49;;;;;;;9.77;5.47;;;14.80;99.90;;;;;;4937921;29;20345;-66
2022/10/28 07:47:16;;;;;;;8.23;5.27;;;14.90;99.90;;;;;;4937679;29;20309;-66
2022/10/28 07:49:42;;;;;;;8.27;5.30;;;15.00;99.90;;;;;;4937415;29;20213;-66
2022/10/28 07:52:08;;;;;;;8.10;5.00;;;15.00;99.90;;;;;;4938237;29;20759;-66
2022/10/28 07:54:33;;;;;;;6.43;5.60;;;15.10;99.90;;;;;;4936040;28;20213;-67
2022/10/28 07:56:59;;;;;;;10.47;5.37;;;15.20;99.90;;;;;;4931256;29;20579;-67
2022/10/28 07:59:24;;;;;;;8.57;4.60;;;15.30;99.90;;;;;;4918065;29;20206;-67
2022/10/28 08:01:50;;;;;;;8.30;5.77;;;15.40;99.90;;;;;;4925328;29;20589;-66
2022/10/28 08:04:15;;;;;;;8.30;5.47;;;15.50;99.90;;;;;;4923930;29;20271;-66
2022/10/28 08:06:41;;;;;;;7.40;4.93;;;15.60;99.90;;;;;;4921143;29;20214;-68
2022/10/28 08:09:07;;;;;;;9.07;4.97;;;15.60;99.90;;;;;;4922866;29;20206;-67
2022/10/28 08:11:32;;;;;;;10.73;5.37;;;15.70;99.90;;;;;;4921153;29;20199;-67
2022/10/28 08:13:58;;;;;;;9.40;5.50;;;15.80;99.90;;;;;;4923739;29;20754;-67
2022/10/28 08:16:24;;;;;;;7.47;4.80;;;15.80;99.90;;;;;;4923833;29;20257;-68
2022/10/28 08:18:51;;;;;;;13.93;5.07;;;16.00;99.90;;;;;;4921604;29;20813;-74
2022/10/28 08:21:17;;;;;;;6.20;4.47;;;16.10;99.90;;;;;;4921503;29;20614;-72
2022/10/28 08:23:45;;;;;;;7.20;5.37;;;16.20;99.90;;;;;;4928102;28;20206;-73
2022/10/28 08:26:12;;;;;;;4.83;4.23;;;16.30;99.90;;;;;;4931600;29;20604;-73
2022/10/28 08:28:38;;;;;;;10.80;5.40;;;16.40;99.90;;;;;;4931256;29;20786;-73
2022/10/28 08:31:07;;;;;;;6.57;4.70;;;16.50;99.90;;;;;;4928216;29;20215;-71
2022/10/28 08:33:34;;;;;;;6.70;4.83;;;16.50;99.90;;;;;;4927819;29;20225;-70
2022/10/28 08:35:59;;;;;;;9.63;5.27;;;16.50;99.90;;;;;;4925059;29;20314;-75
2022/10/28 08:38:25;;;;;;;6.00;4.20;;;16.50;99.90;;;;;;4927784;29;20286;-73
2022/10/28 08:40:56;;;;;;;6.67;4.47;;;16.40;99.90;;;;;;4923983;29;20669;-70
2022/10/28 08:43:29;;;;;;;6.23;4.50;;;16.30;99.90;;;;;;4930209;29;20218;-69
2022/10/28 08:46:15;;;;;;;6.77;4.00;;;16.40;99.90;;;;;;4940047;29;20198;-70
2022/10/28 08:48:41;;;;;;;4.67;4.27;;;16.30;99.90;;;;;;4940039;29;20230;-73
2022/10/28 08:51:15;;;;;;;7.53;4.63;;;16.30;99.90;;;;;;4939623;29;20306;-73
2022/10/28 08:53:51;;;;;;;8.73;4.20;;;16.30;99.90;;;;;;4936442;28;20210;-69
2022/10/28 08:56:27;;;;;;;7.53;5.23;;;16.40;99.90;;;;;;4929165;29;20215;-69
2022/10/28 08:58:57;;;;;;;7.80;4.60;;;16.40;99.90;;;;;;4931451;29;20224;-76
2022/10/28 09:01:45;;;;;;;6.10;4.30;;;16.50;99.90;;;;;;4923054;29;20253;-70
2022/10/28 09:04:44;;;;;;;7.53;4.53;;;16.60;99.90;;;;;;4929170;29;20677;-69
2022/10/28 09:07:20;;;;;;;7.57;4.33;;;16.70;99.90;;;;;;4923386;29;20221;-70
2022/10/28 09:09:47;;;;;;;8.30;4.70;;;16.80;99.90;;;;;;4930910;29;20257;-71
2022/10/28 09:12:30;;;;;;;6.20;3.83;;;16.80;99.90;;;;;;4930678;29;20296;-68
2022/10/28 09:15:05;;;;;;;6.57;4.73;;;17.00;99.90;;;;;;4926807;29;20232;-69
2022/10/28 09:17:50;;;;;;;4.70;3.73;;;17.20;99.90;;;;;;4928495;29;20250;-69
2022/10/28 09:20:45;;;;;;;8.10;4.17;;;17.40;99.90;;;;;;4929997;29;20202;-69
2022/10/28 09:23:32;;;;;;;6.30;3.80;;;17.50;99.90;;;;;;4930051;29;20244;-71
2022/10/28 09:26:26;;;;;;;5.87;4.10;;;17.60;99.90;;;;;;4917133;29;20202;-70
2022/10/28 09:29:10;;;;;;;5.67;4.40;;;17.70;99.90;;;;;;4927268;29;20208;-76
2022/10/28 09:31:43;;;;;;;5.40;4.07;;;17.90;99.90;;;;;;4926140;29;20302;-74
2022/10/28 09:34:25;;;;;;;10.20;5.00;;;17.90;99.90;;;;;;4930793;28;20234;-80
2022/10/28 09:36:55;;;;;;;14.03;4.20;;;17.90;99.90;;;;;;4923008;29;20204;-75
2022/10/28 09:39:26;;;;;;;6.30;3.80;;;18.00;99.90;;;;;;4921621;29;20199;-80
2022/10/28 09:41:53;;;;;;;4.33;3.67;;;18.00;99.90;;;;;;4924390;29;20665;-80
2022/10/28 09:44:42;;;;;;;3.60;3.30;;;18.10;99.90;;;;;;4922779;29;20203;-78
2022/10/28 09:47:16;;;;;;;8.03;3.77;;;18.30;99.90;;;;;;4924583;29;20637;-77
2022/10/28 09:49:42;;;;;;;7.33;3.90;;;18.50;99.90;;;;;;4922581;29;20673;-77
2022/10/28 09:52:07;;;;;;;8.23;4.27;;;18.70;99.90;;;;;;4927596;29;20204;-77
2022/10/28 09:54:38;;;;;;;7.73;3.83;;;18.90;99.90;;;;;;4925855;29;20228;-81
2022/10/28 09:57:04;;;;;;;4.30;3.57;;;19.20;99.90;;;;;;4927113;29;20205;-78
2022/10/28 09:59:30;;;;;;;11.03;4.03;;;19.40;99.90;;;;;;4932982;29;20213;-77
2022/10/28 10:01:56;;;;;;;4.70;3.30;;;19.50;99.90;;;;;;4933252;29;20641;-78
2022/10/28 10:04:25;;;;;;;5.97;4.20;;;19.50;99.90;;;;;;4930663;29;20209;-78
2022/10/28 10:06:53;;;;;;;5.37;3.30;;;19.50;99.90;;;;;;4935834;29;20231;-78
2022/10/28 10:09:38;;;;;;;4.80;3.07;;;19.40;99.90;;;;;;4938609;29;20202;-78
2022/10/28 10:12:09;;;;;;;6.97;3.10;;;19.30;99.90;;;;;;4932041;29;20920;-78
2022/10/28 10:14:42;;;;;;;6.33;3.60;;;19.30;99.90;;;;;;4936038;29;20217;-78
2022/10/28 10:17:44;;;;;;;6.57;3.43;;;19.30;99.90;;;;;;4942177;29;20210;-81
2022/10/28 10:20:16;;;;;;;7.73;3.33;;;19.30;99.90;;;;;;4885908;29;20219;-81
2022/10/28 10:22:46;;;;;;;4.03;3.57;;;19.40;99.90;;;;;;4931823;29;20787;-81
2022/10/28 10:25:18;;;;;;;9.03;3.67;;;19.50;99.90;;;;;;4939612;29;20208;-79
2022/10/28 10:28:17;;;;;;;5.80;3.73;;;19.60;99.90;;;;;;4939286;29;20287;-80
2022/10/28 10:30:56;;;;;;;6.60;3.73;;;19.70;99.90;;;;;;4933180;29;20309;-73
2022/10/28 10:33:25;;;;;;;7.73;3.40;;;19.90;99.90;;;;;;4925598;29;20206;-74
2022/10/28 10:36:03;;;;;;;5.73;3.30;;;20.00;99.90;;;;;;4929555;29;20245;-69
2022/10/28 10:38:30;;;;;;;6.87;3.43;;;20.10;99.90;;;;;;4924442;29;20776;-78
2022/10/28 10:40:55;;;;;;;9.07;3.50;;;20.30;99.90;;;;;;4928640;29;20208;-79
2022/10/28 10:43:28;;;;;;;4.63;3.57;;;20.40;99.90;;;;;;4929168;29;20205;-79
2022/10/28 10:46:16;;;;;;;5.63;2.83;;;20.50;99.90;;;;;;4924738;29;20224;-79
2022/10/28 10:48:42;;;;;;;4.60;3.10;;;20.70;99.90;;;;;;4921893;29;20226;-79
2022/10/28 10:51:23;;;;;;;5.80;2.73;;;20.70;99.90;;;;;;4921469;29;20206;-80
2022/10/28 10:53:52;;;;;;;4.07;2.87;;;20.80;99.90;;;;;;4921400;29;20253;-79
2022/10/28 10:56:31;;;;;;;7.87;3.73;;;21.00;99.90;;;;;;4922791;29;20200;-80
2022/10/28 10:59:02;;;;;;;5.53;2.43;;;21.10;99.90;;;;;;4922508;29;20210;-79
2022/10/28 11:01:34;;;;;;;6.23;3.57;;;21.30;99.90;;;;;;4935645;29;20194;-77
2022/10/28 11:04:07;;;;;;;4.70;3.03;;;21.40;99.90;;;;;;4924858;29;20209;-75
2022/10/28 11:06:37;;;;;;;8.83;3.20;;;21.60;99.90;;;;;;4925446;29;20222;-82
2022/10/28 11:09:05;;;;;;;7.97;3.47;;;21.70;99.90;;;;;;4921021;29;20298;-80
2022/10/28 11:11:39;;;;;;;11.87;3.30;;;21.90;99.90;;;;;;4922801;29;20206;-78
2022/10/28 11:14:07;;;;;;;4.03;2.57;;;22.00;99.90;;;;;;4923175;29;20818;-80
2022/10/28 11:16:46;;;;;;;8.90;3.07;;;22.20;99.90;;;;;;4922953;29;20312;-78
2022/10/28 11:19:20;;;;;;;8.57;3.23;;;22.30;99.90;;;;;;4937216;29;20562;-75
2022/10/28 11:21:53;;;;;;;10.27;3.47;;;22.40;99.90;;;;;;4937729;29;20208;-76
2022/10/28 11:24:56;;;;;;;5.80;2.87;;;22.60;99.90;;;;;;4923897;29;20229;-75
2022/10/28 11:27:36;;;;;;;4.70;3.17;;;22.80;99.90;;;;;;4919831;29;20289;-75
2022/10/28 11:30:03;;;;;;;7.00;3.07;;;22.90;99.90;;;;;;4926791;29;20198;-79
2022/10/28 11:32:40;;;;;;;9.73;2.73;;;23.10;99.90;;;;;;4927322;29;20203;-72
2022/10/28 11:35:19;;;;;;;6.13;3.05;;;23.20;99.90;;;;;;4920415;29;20214;-82
2022/10/28 11:38:14;;;;;;;9.77;3.10;;;23.30;99.90;;;;;;4920837;29;20225;-81
2022/10/28 11:41:17;;;;;;;3.77;2.57;;;23.40;99.90;;;;;;4920975;29;20608;-83
2022/10/28 11:43:47;;;;;;;3.38;2.55;;;23.60;99.90;;;;;;4923142;29;20776;-82
2022/10/28 11:46:31;;;;;;;6.43;3.22;;;23.70;99.90;;;;;;4929530;29;20198;-81
2022/10/28 11:49:23;;;;;;;10.07;3.35;;;23.90;99.90;;;;;;4918752;29;20217;-81
2022/10/28 11:52:21;;;;;;;4.90;3.22;;;24.20;99.90;;;;;;4924604;29;20298;-81
2022/10/28 11:55:31;;;;;;;7.22;2.85;;;24.60;99.90;;;;;;4921208;28;20261;-81
2022/10/28 11:58:12;;;;;;;6.72;3.40;;;24.90;99.90;;;;;;4897739;29;20207;-79
2022/10/28 12:00:55;;;;;;;4.50;2.92;;;24.90;99.90;;;;;;4924198;29;20564;-73
2022/10/28 12:03:51;;;;;;;5.85;3.33;;;24.80;99.90;;;;;;4922297;29;20260;-81
2022/10/28 12:06:54;;;;;;;5.10;3.03;;;24.50;99.90;;;;;;4930019;29;20197;-81
2022/10/28 12:09:28;;;;;;;5.97;3.47;;;24.30;99.90;;;;;;4932717;29;20734;-81
2022/10/28 12:12:25;;;;;;;6.43;2.78;;;24.60;99.80;;;;;;4935134;29;20194;-82
2022/10/28 12:15:09;;;;;;;4.88;2.95;;;25.00;99.20;;;;;;4926722;29;20705;-78
2022/10/28 12:17:49;;;;;;;5.85;2.88;;;24.90;99.10;;;;;;4925378;29;20206;-73
2022/10/28 12:20:34;;;;;;;10.68;3.10;;;24.80;99.10;;;;;;4925207;29;20202;-73
2022/10/28 12:23:05;;;;;;;10.60;3.45;;;24.70;99.60;;;;;;4922354;29;20298;-73
2022/10/28 12:25:34;;;;;;;4.30;3.00;;;24.70;99.20;;;;;;4925522;29;20207;-73
2022/10/28 12:28:04;;;;;;;6.45;2.97;;;24.80;99.70;;;;;;4924157;29;20206;-77
2022/10/28 12:30:33;;;;;;;9.52;3.03;;;25.10;99.40;;;;;;4926631;29;20203;-77
2022/10/28 12:33:21;;;;;;;3.53;2.33;;;25.40;98.40;;;;;;4926548;28;20235;-76
2022/10/28 12:35:55;;;;;;;7.50;2.75;;;25.70;98.60;;;;;;4922785;29;20283;-75
2022/10/28 12:38:39;;;;;;;9.70;3.25;;;26.30;98.30;;;;;;4923876;29;20203;-74
2022/10/28 12:41:50;;;;;;;5.07;3.30;;;26.90;97.90;;;;;;4937938;29;20195;-78
2022/10/28 12:44:19;;;;;;;11.90;4.45;;;27.40;95.80;;;;;;4936484;29;20213;-78
2022/10/28 12:47:08;;;;;;;9.27;3.38;;;27.60;94.90;;;;;;4934113;29;20239;-72
2022/10/28 12:50:12;;;;;;;3.30;2.92;;;27.70;94.60;;;;;;4929035;29;20784;-73
2022/10/28 12:53:15;;;;;;;6.45;2.63;;;28.10;94.20;;;;;;4929098;28;20551;-74
2022/10/28 12:55:56;;;;;;;5.95;3.63;;;28.50;93.70;;;;;;4926362;29;20273;-73
2022/10/28 12:58:37;;;;;;;5.85;3.88;;;28.80;92.80;;;;;;4934014;29;20233;-71
2022/10/28 13:01:15;;;;;;;5.80;2.83;;;29.00;92.50;;;;;;4936700;29;20197;-73
2022/10/28 13:03:44;;;;;;;4.80;2.95;;;28.90;91.00;;;;;;4927690;29;20237;-79
2022/10/28 13:06:15;;;;;;;5.78;3.00;;;28.70;91.50;;;;;;4929586;29;20254;-80
2022/10/28 13:09:08;;;;;;;5.15;3.42;;;28.90;91.50;;;;;;4929076;29;20297;-68
2022/10/28 13:11:58;;;;;;;8.43;3.10;;;28.90;91.20;;;;;;4924920;29;20665;-69